createdAt,value
2023-01-19T00:01:08.538Z,6.10
2023-01-19T00:03:37.140Z,5.70
2023-01-19T00:11:04.078Z,5.40
2023-01-19T00:13:31.674Z,5.30
2023-01-19T00:15:59.428Z,5.20
2023-01-19T00:18:27.089Z,5.20
2023-01-19T00:28:19.983Z,7.20
2023-01-19T00:33:16.267Z,4.90
2023-01-19T00:50:34.387Z,4.40
2023-01-19T00:55:31.744Z,4.50
2023-01-19T01:00:27.141Z,4.30
2023-01-19T01:07:50.824Z,3.90
2023-01-19T01:10:21.671Z,3.50
2023-01-19T01:22:53.035Z,3.40
2023-01-19T01:25:23.209Z,3.40
2023-01-19T01:32:49.064Z,3.30
2023-01-19T01:37:44.913Z,3.20
2023-01-19T01:40:14.815Z,3.20
2023-01-19T01:42:42.703Z,3.20
2023-01-19T01:48:03.878Z,3.20
2023-01-19T01:50:35.526Z,3.10
2023-01-19T01:53:12.401Z,3.10
2023-01-19T01:55:48.141Z,3.00
2023-01-19T01:58:16.205Z,3.00
2023-01-19T02:03:32.409Z,2.90
2023-01-19T02:06:04.403Z,2.90
2023-01-19T02:09:21.023Z,2.80
2023-01-19T02:12:07.438Z,2.70
2023-01-19T02:14:39.271Z,2.50
2023-01-19T02:19:44.149Z,2.30
2023-01-19T02:22:40.753Z,2.20
2023-01-19T02:27:37.840Z,2.00
2023-01-19T02:30:05.851Z,2.00
2023-01-19T02:32:33.590Z,2.00
2023-01-19T02:35:04.503Z,2.00
2023-01-19T02:37:37.592Z,2.00
2023-01-19T02:40:11.154Z,1.90
2023-01-19T02:42:46.307Z,1.90
2023-01-19T02:45:17.422Z,1.80
2023-01-19T02:47:48.058Z,1.80
2023-01-19T02:50:42.167Z,1.80
2023-01-19T02:53:43.197Z,1.80
2023-01-19T02:56:47.497Z,1.80
2023-01-19T02:59:54.425Z,1.80
2023-01-19T03:05:05.042Z,1.80
2023-01-19T03:08:05.285Z,1.70
2023-01-19T03:10:58.055Z,1.70
2023-01-19T03:16:26.059Z,1.70
2023-01-19T03:18:58.731Z,1.70
2023-01-19T03:24:02.946Z,1.60
2023-01-19T04:21:04.171Z,1.80
2023-01-19T04:28:28.389Z,1.80
2023-01-19T04:50:42.658Z,1.70
2023-01-19T04:55:38.953Z,1.70
2023-01-19T04:58:06.639Z,1.80
2023-01-19T05:00:34.353Z,1.80
2023-01-19T05:03:02.323Z,1.80
2023-01-19T05:05:30.543Z,1.80
2023-01-19T05:17:49.733Z,1.80
2023-01-19T05:20:17.754Z,1.80
2023-01-19T05:22:50.808Z,1.80
2023-01-19T05:30:15.082Z,1.80
2023-01-19T05:32:46.015Z,1.90
2023-01-19T05:37:52.857Z,1.90
2023-01-19T05:45:16.401Z,1.90
2023-01-19T05:50:12.178Z,1.90
2023-01-19T06:00:06.706Z,2.00
2023-01-19T06:12:25.583Z,2.00
2023-01-19T06:19:48.820Z,2.10
2023-01-19T06:22:16.438Z,2.10
2023-01-19T06:24:44.217Z,2.30
2023-01-19T06:29:39.521Z,2.20
2023-01-19T06:32:07.485Z,2.20
2023-01-19T06:59:34.707Z,2.30
2023-01-19T07:14:43.410Z,2.30
2023-01-19T07:24:35.043Z,2.40
2023-01-19T07:36:56.574Z,2.20
2023-01-19T07:41:52.025Z,2.40
2023-01-19T07:46:47.632Z,2.40
2023-01-19T08:01:37.805Z,2.50
2023-01-19T08:09:07.237Z,2.50
2023-01-19T08:21:30.795Z,2.50
2023-01-19T08:38:52.828Z,2.50
2023-01-19T08:43:48.493Z,5.10
2023-01-19T08:53:46.248Z,2.40
2023-01-19T08:56:14.542Z,2.40
2023-01-19T08:58:43.884Z,4.40
2023-01-19T09:03:46.383Z,2.40
2023-01-19T09:06:17.318Z,2.40
2023-01-19T09:11:21.104Z,2.40
2023-01-19T09:13:49.225Z,2.40
2023-01-19T09:16:18.256Z,2.40
2023-01-19T09:18:49.147Z,1.40
2023-01-19T09:21:16.961Z,2.30
2023-01-19T09:23:44.771Z,2.30
2023-01-19T09:31:09.652Z,2.30
2023-01-19T09:36:05.839Z,2.30
2023-01-19T09:41:04.514Z,2.40
2023-01-19T09:43:53.687Z,2.40
2023-01-19T09:46:27.490Z,2.40
2023-01-19T09:48:57.824Z,2.30
2023-01-19T09:51:25.211Z,2.30
2023-01-19T09:54:01.051Z,2.30
2023-01-19T09:58:56.907Z,2.00
2023-01-19T10:01:49.102Z,2.40
2023-01-19T10:06:58.927Z,2.40
2023-01-19T10:09:52.782Z,2.40
2023-01-19T10:18:04.574Z,2.40
2023-01-19T10:20:46.961Z,2.40
2023-01-19T10:26:18.461Z,2.50
2023-01-19T10:31:19.772Z,2.50
2023-01-19T10:36:21.071Z,2.50
2023-01-19T10:54:04.164Z,2.60
2023-01-19T11:04:22.436Z,4.50
2023-01-19T11:09:21.895Z,2.50
2023-01-19T11:14:24.809Z,2.50
2023-01-19T11:16:57.481Z,2.50
2023-01-19T11:19:33.678Z,2.50
2023-01-19T11:22:23.134Z,2.50
2023-01-19T11:29:52.547Z,2.50
2023-01-19T11:34:54.357Z,2.50
2023-01-19T11:42:28.564Z,2.40
2023-01-19T11:52:45.819Z,2.50
2023-01-19T11:55:36.935Z,2.50
2023-01-19T12:00:50.124Z,2.60
2023-01-19T12:03:31.753Z,2.80
2023-01-19T12:06:07.919Z,2.80
2023-01-19T12:08:43.363Z,2.80
2023-01-19T12:11:18.272Z,2.80
2023-01-19T12:13:48.330Z,2.80
2023-01-19T12:16:22.374Z,2.80
2023-01-19T12:18:53.376Z,2.90
2023-01-19T12:21:21.188Z,2.90
2023-01-19T12:23:48.903Z,2.90
2023-01-19T12:26:54.025Z,2.80
2023-01-19T12:32:17.102Z,2.80
2023-01-19T12:45:08.279Z,2.80
2023-01-19T12:50:19.491Z,2.80
2023-01-19T12:53:02.749Z,2.80
2023-01-19T12:58:25.764Z,2.80
2023-01-19T13:01:15.137Z,2.80
2023-01-19T13:06:13.031Z,2.70
2023-01-19T13:17:15.715Z,2.60
2023-01-19T13:19:56.872Z,2.70
2023-01-19T13:22:51.277Z,2.60
2023-01-19T13:25:37.114Z,2.60
2023-01-19T13:28:10.192Z,2.60
2023-01-19T13:30:49.645Z,2.50
2023-01-19T13:33:21.548Z,2.40
2023-01-19T13:35:55.908Z,2.80
2023-01-19T13:40:55.812Z,2.40
2023-01-19T13:43:32.198Z,2.40
2023-01-19T13:46:00.695Z,2.30
2023-01-19T13:51:02.508Z,2.20
2023-01-19T13:53:30.565Z,2.30
2023-01-19T13:56:20.744Z,2.50
2023-01-19T13:59:13.043Z,2.10
2023-01-19T14:01:51.568Z,2.10
2023-01-19T14:04:35.461Z,2.00
2023-01-19T14:07:15.281Z,2.10
2023-01-19T14:09:46.777Z,1.90
2023-01-19T14:12:17.607Z,1.80
2023-01-19T14:14:49.558Z,1.80
2023-01-19T14:17:24.588Z,1.80
2023-01-19T14:20:13.148Z,1.80
2023-01-19T14:22:48.206Z,1.70
2023-01-19T14:25:32.586Z,1.70
2023-01-19T14:28:29.610Z,1.70
2023-01-19T14:38:50.295Z,1.50
2023-01-19T14:41:49.168Z,1.50
2023-01-19T14:44:30.738Z,1.50
2023-01-19T14:46:59.682Z,1.50
2023-01-19T14:49:40.843Z,1.50
2023-01-19T14:52:25.307Z,1.50
2023-01-19T14:54:54.108Z,1.50
2023-01-19T14:57:26.163Z,1.50
2023-01-19T14:59:56.562Z,2.90
2023-01-19T15:02:24.951Z,1.40
2023-01-19T15:04:57.897Z,1.50
2023-01-19T15:07:29.096Z,1.30
2023-01-19T15:10:00.471Z,1.30
2023-01-19T15:12:31.009Z,3.20
2023-01-19T15:15:09.253Z,1.30
2023-01-19T15:17:39.592Z,1.80
2023-01-19T15:20:15.453Z,1.30
2023-01-19T15:22:43.597Z,1.30
2023-01-19T15:25:14.912Z,1.80
2023-01-19T15:27:43.163Z,1.20
2023-01-19T15:30:33.583Z,1.20
2023-01-19T15:33:04.447Z,1.20
2023-01-19T15:35:37.450Z,1.20
2023-01-19T15:40:36.623Z,1.00
2023-01-19T15:43:06.784Z,1.10
2023-01-19T15:45:45.146Z,1.00
2023-01-19T15:48:15.745Z,1.00
2023-01-19T15:50:49.494Z,0.90
2023-01-19T15:53:20.796Z,0.90
2023-01-19T15:55:53.011Z,0.80
2023-01-19T15:58:23.792Z,0.90
2023-01-19T16:00:57.856Z,0.90
2023-01-19T16:03:28.538Z,0.90
2023-01-19T16:06:03.955Z,0.90
2023-01-19T16:08:31.307Z,0.10
2023-01-19T16:11:11.115Z,0.90
2023-01-19T16:13:39.240Z,0.90
2023-01-19T16:16:09.258Z,0.90
2023-01-19T16:18:39.179Z,0.80
2023-01-19T16:21:10.366Z,0.90
2023-01-19T16:23:37.596Z,0.90
2023-01-19T16:26:33.780Z,2.80
2023-01-19T16:29:08.000Z,0.90
2023-01-19T16:34:10.733Z,0.90
2023-01-19T16:36:40.928Z,0.80
2023-01-19T16:39:11.132Z,0.80
2023-01-19T16:41:38.604Z,0.80
2023-01-19T16:44:13.662Z,0.80
2023-01-19T16:46:46.216Z,0.80
2023-01-19T16:49:16.937Z,0.70
2023-01-19T16:51:46.823Z,0.70
2023-01-19T16:54:18.295Z,0.70
2023-01-19T16:56:48.839Z,0.70
2023-01-19T16:59:19.269Z,0.70
2023-01-19T17:01:46.940Z,0.60
2023-01-19T17:04:14.903Z,0.60
2023-01-19T17:06:42.459Z,0.50
2023-01-19T17:11:40.276Z,0.50
2023-01-19T17:14:20.562Z,0.50
2023-01-19T17:19:22.239Z,0.50
2023-01-19T17:21:50.273Z,0.50
2023-01-19T17:24:18.121Z,0.40
2023-01-19T17:26:48.798Z,0.40
2023-01-19T17:29:19.597Z,0.40
2023-01-19T17:31:50.750Z,0.40
2023-01-19T17:34:18.169Z,0.40
2023-01-19T17:39:15.067Z,0.40
2023-01-19T17:41:43.199Z,0.40
2023-01-19T17:44:11.739Z,0.40
2023-01-19T17:46:42.388Z,0.40
2023-01-19T17:49:12.441Z,0.40
2023-01-19T17:51:44.707Z,0.30
2023-01-19T17:54:16.390Z,0.30
2023-01-19T17:56:44.883Z,0.30
2023-01-19T17:59:12.405Z,0.30
2023-01-19T18:01:40.702Z,0.10
2023-01-19T18:04:09.104Z,0.60
2023-01-19T18:06:39.741Z,0.30
2023-01-19T18:09:09.691Z,0.40
2023-01-19T18:14:07.402Z,0.40
2023-01-19T18:16:35.928Z,0.40
2023-01-19T18:19:03.361Z,0.40
2023-01-19T18:21:33.208Z,0.40
2023-01-19T18:24:02.675Z,0.40
2023-01-19T18:26:31.099Z,0.40
2023-01-19T18:28:59.071Z,0.50
2023-01-19T18:31:29.773Z,1.40
2023-01-19T18:36:24.941Z,0.30
2023-01-19T18:38:52.785Z,0.30
2023-01-19T18:41:21.631Z,0.30
2023-01-19T18:43:53.606Z,-0.20
2023-01-19T18:46:21.432Z,0.30
2023-01-19T18:48:54.290Z,0.30
2023-01-19T18:51:27.112Z,0.30
2023-01-19T18:53:54.716Z,0.30
2023-01-19T18:56:22.313Z,0.30
2023-01-19T18:58:54.779Z,0.30
2023-01-19T19:01:32.811Z,0.30
2023-01-19T19:04:03.658Z,0.30
2023-01-19T19:06:31.291Z,0.30
2023-01-19T19:09:03.472Z,0.30
2023-01-19T19:11:35.726Z,0.30
2023-01-19T19:14:03.726Z,0.30
2023-01-19T19:16:39.378Z,0.20
2023-01-19T19:19:08.413Z,0.30
2023-01-19T19:21:38.925Z,0.20
2023-01-19T19:24:09.442Z,0.30
2023-01-19T19:26:42.159Z,0.20
2023-01-19T19:29:12.962Z,0.20
2023-01-19T19:31:43.736Z,0.20
2023-01-19T19:34:17.432Z,0.30
2023-01-19T19:36:44.949Z,0.20
2023-01-19T19:39:15.551Z,0.20
2023-01-19T19:41:42.955Z,0.20
2023-01-19T19:44:13.571Z,0.20
2023-01-19T19:46:44.174Z,0.20
2023-01-19T19:49:13.876Z,0.20
2023-01-19T19:51:42.081Z,0.20
2023-01-19T19:54:12.259Z,0.20
2023-01-19T19:56:39.524Z,0.20
2023-01-19T19:59:10.275Z,0.30
2023-01-19T20:01:43.750Z,0.10
2023-01-19T20:04:15.328Z,0.30
2023-01-19T20:06:48.531Z,0.30
2023-01-19T20:09:16.791Z,0.30
2023-01-19T20:11:46.798Z,0.30
2023-01-19T20:14:16.239Z,0.30
2023-01-19T20:19:14.189Z,0.30
2023-01-19T20:21:44.121Z,0.30
2023-01-19T20:24:18.430Z,0.20
2023-01-19T20:26:52.391Z,0.40
2023-01-19T20:29:22.910Z,0.40
2023-01-19T20:31:55.692Z,0.40
2023-01-19T20:34:28.362Z,0.40
2023-01-19T20:36:56.268Z,0.40
2023-01-19T20:39:34.700Z,0.40
2023-01-19T20:42:09.688Z,0.60
2023-01-19T20:47:09.389Z,0.40
2023-01-19T20:49:40.334Z,0.40
2023-01-19T20:52:10.696Z,0.40
2023-01-19T20:54:40.572Z,0.40
2023-01-19T20:59:40.926Z,0.50
2023-01-19T21:02:14.393Z,0.50
2023-01-19T21:04:44.226Z,0.50
2023-01-19T21:07:12.277Z,0.50
2023-01-19T21:09:39.922Z,0.50
2023-01-19T21:12:11.281Z,0.50
2023-01-19T21:14:42.488Z,0.60
2023-01-19T21:17:13.335Z,0.60
2023-01-19T21:19:40.934Z,0.60
2023-01-19T21:22:08.320Z,0.70
2023-01-19T21:24:35.821Z,0.70
2023-01-19T21:29:36.190Z,0.70
2023-01-19T21:32:06.967Z,0.70
2023-01-19T21:34:36.831Z,0.80
2023-01-19T21:37:04.500Z,0.80
2023-01-19T21:39:37.998Z,0.80
2023-01-19T21:42:07.716Z,0.80
2023-01-19T21:44:35.398Z,0.90
2023-01-19T21:47:10.408Z,0.90
2023-01-19T21:49:37.912Z,0.90
2023-01-19T21:52:05.739Z,0.90
2023-01-19T21:54:33.376Z,0.90
2023-01-19T21:57:03.247Z,0.90
2023-01-19T21:59:30.643Z,0.80
2023-01-19T22:02:00.432Z,0.80
2023-01-19T22:04:30.488Z,1.30
2023-01-19T22:06:57.923Z,0.80
2023-01-19T22:11:53.375Z,0.60
2023-01-19T22:14:22.870Z,0.70
2023-01-19T22:16:53.416Z,-1.10
2023-01-19T22:19:23.294Z,0.70
2023-01-19T22:21:51.011Z,0.90
2023-01-19T22:24:18.519Z,0.60
2023-01-19T22:26:52.151Z,0.60
2023-01-19T22:29:19.910Z,0.60
2023-01-19T22:31:52.208Z,0.50
2023-01-19T22:34:21.964Z,0.50
2023-01-19T22:36:50.313Z,0.50
2023-01-19T22:39:17.959Z,0.50
2023-01-19T22:41:50.556Z,0.50
2023-01-19T22:44:22.573Z,0.50
2023-01-19T22:46:56.138Z,0.50
2023-01-19T22:49:26.184Z,0.70
2023-01-19T22:51:58.324Z,0.50
2023-01-19T22:54:25.839Z,0.50
2023-01-19T22:56:56.302Z,0.50
2023-01-19T22:59:26.226Z,0.40
2023-01-19T23:01:56.887Z,0.50
2023-01-19T23:04:24.559Z,0.50
2023-01-19T23:06:52.238Z,0.50
2023-01-19T23:09:20.587Z,0.50
2023-01-19T23:11:50.735Z,0.40
2023-01-19T23:14:21.726Z,0.50
2023-01-19T23:16:51.517Z,0.50
2023-01-19T23:19:24.713Z,0.50
2023-01-19T23:21:55.275Z,0.40
2023-01-19T23:29:23.616Z,0.70
2023-01-19T23:31:53.555Z,0.50
2023-01-19T23:34:26.481Z,1.20
2023-01-19T23:36:53.810Z,1.30
2023-01-19T23:39:22.219Z,0.50
2023-01-19T23:41:52.350Z,0.40
2023-01-19T23:44:19.845Z,0.50
2023-01-19T23:46:50.252Z,0.50
2023-01-19T23:49:18.253Z,0.40
2023-01-19T23:54:16.357Z,0.50
2023-01-19T23:56:44.279Z,0.50
2023-01-19T23:59:16.475Z,0.50
